Time;durP1;ratioP1;P1;durP2;ratioP2;P2;SDS_P1;SDS_P2;PMS_P1;PMS_P2;Temp;Humidity;BMP_temperature;BMP_pressure;BME280_temperature;BME280_humidity;BME280_pressure;Samples;Min_cycle;Max_cycle;Signal;HPM_P1;HPM_P2
2021/12/17 00:07:04;;;;;;;14.03;10.70;;;12.00;79.40;;;15.24;58.27;103829.66;4917722;29;20198;-50
2021/12/17 00:09:33;;;;;;;13.80;10.67;;;12.00;79.50;;;15.25;58.21;103823.38;4917775;29;20195;-50
2021/12/17 00:12:01;;;;;;;15.57;10.80;;;12.00;79.50;;;15.25;58.34;103823.38;4917799;29;20222;-51
2021/12/17 00:14:36;;;;;;;15.90;12.00;;;12.00;79.50;;;15.26;57.99;103828.56;4918311;29;20196;-53
2021/12/17 00:17:09;;;;;;;13.07;11.37;;;12.00;79.50;;;15.26;58.40;103831.22;4919886;29;20204;-51
2021/12/17 00:52:39;;;;;;;11.60;9.73;;;12.00;79.10;;;15.11;58.71;103844.94;4917216;29;20210;-51
2021/12/17 00:55:09;;;;;;;14.10;11.03;;;12.00;79.10;;;15.09;59.04;103846.88;4923561;29;20232;-51
2021/12/17 00:57:43;;;;;;;15.27;10.40;;;12.00;79.10;;;15.10;58.71;103837.94;4936135;29;20205;-51
2021/12/17 01:00:17;;;;;;;11.33;9.80;;;12.00;79.20;;;15.09;58.85;103836.25;4937100;29;20270;-52
2021/12/17 01:02:46;;;;;;;11.33;9.57;;;12.00;79.30;;;15.07;58.93;103838.22;4936358;29;20186;-53
2021/12/17 01:05:17;;;;;;;13.97;10.33;;;12.00;79.40;;;15.06;58.81;103836.50;4927992;29;20219;-53
2021/12/17 01:07:48;;;;;;;13.67;10.57;;;12.00;79.40;;;15.06;59.25;103824.09;4917286;29;20194;-51
2021/12/17 01:10:23;;;;;;;11.50;9.17;;;12.00;79.50;;;15.05;59.09;103830.34;4917658;29;20237;-54
2021/12/17 01:12:52;;;;;;;14.07;9.90;;;12.00;79.30;;;15.04;58.74;103836.66;4918342;29;20221;-53
2021/12/17 01:15:20;;;;;;;12.43;10.10;;;11.90;79.10;;;15.03;59.18;103842.06;4916778;29;20214;-53
2021/12/17 01:18:00;;;;;;;14.90;11.00;;;11.90;79.20;;;15.02;58.84;103861.63;4917032;29;20194;-51
2021/12/17 01:23:18;;;;;;;15.53;10.70;;;11.90;79.40;;;15.04;58.88;103867.63;4917702;29;20199;-51
2021/12/17 01:37:10;;;;;;;14.00;10.67;;;11.90;79.80;;;14.92;59.21;103856.22;4898042;29;20194;-53
2021/12/17 01:42:42;;;;;;;14.17;10.50;;;11.80;79.80;;;14.89;59.46;103852.00;4898421;29;20224;-51
2021/12/17 01:45:12;;;;;;;12.53;9.70;;;11.80;79.90;;;14.93;59.60;103855.25;4906897;29;20222;-52
2021/12/17 01:47:39;;;;;;;10.70;8.87;;;11.80;80.70;;;14.93;59.44;103853.44;4920375;29;20552;-51
2021/12/17 02:01:21;;;;;;;8.57;6.73;;;11.80;79.40;;;14.91;59.23;103876.59;4861064;29;20514;-52
2021/12/17 02:03:48;;;;;;;9.67;7.63;;;11.80;79.40;;;14.91;59.28;103876.59;4908847;29;20676;-51
2021/12/17 02:06:17;;;;;;;9.27;7.97;;;11.80;79.40;;;14.93;59.45;103867.69;4919503;29;20249;-51
2021/12/17 02:08:47;;;;;;;9.27;7.73;;;11.80;79.50;;;14.93;59.09;103869.34;4919990;29;20197;-54
2021/12/17 02:22:26;;;;;;;9.03;7.00;;;11.80;79.80;;;14.90;58.98;103872.25;4919927;29;20277;-51
2021/12/17 02:30:40;;;;;;;10.47;7.20;;;11.70;79.50;;;14.86;59.06;103849.59;4919575;29;20203;-53
2021/12/17 02:33:04;;;;;;;8.67;6.77;;;11.70;79.60;;;14.85;59.12;103855.91;4931879;29;20580;-51
2021/12/17 02:35:38;;;;;;;7.60;6.07;;;11.70;79.80;;;14.86;59.44;103856.72;4927105;29;20253;-49
2021/12/17 02:38:09;;;;;;;7.27;5.77;;;11.70;79.80;;;14.85;59.20;103855.91;4919762;29;20190;-52
2021/12/17 02:46:09;;;;;;;5.30;4.53;;;11.70;79.80;;;14.82;59.36;103871.19;4918452;29;20710;-50
2021/12/17 02:48:40;;;;;;;6.47;4.73;;;11.70;79.80;;;14.82;59.23;103858.78;4920098;29;20194;-50
2021/12/17 02:51:09;;;;;;;5.00;3.97;;;11.80;79.70;;;14.84;59.38;103854.19;4919364;29;20258;-52
2021/12/17 02:53:38;;;;;;;4.77;3.47;;;11.80;79.60;;;14.83;59.12;103860.47;4922602;29;20549;-52
2021/12/17 02:56:08;;;;;;;4.43;3.60;;;11.80;79.40;;;14.84;59.23;103854.19;4919004;29;20218;-53
2021/12/17 02:58:38;;;;;;;3.90;3.33;;;11.80;79.30;;;14.82;58.94;103850.84;4948880;29;20198;-52
2021/12/17 03:01:11;;;;;;;3.63;3.23;;;11.80;79.30;;;14.81;58.85;103837.69;4957017;29;20193;-51
2021/12/17 03:03:41;;;;;;;3.37;2.93;;;11.70;79.00;;;14.78;58.99;103838.81;4957138;29;20202;-53
2021/12/17 03:06:09;;;;;;;4.30;3.17;;;11.70;78.90;;;14.76;59.11;103830.09;4951791;29;20220;-51
2021/12/17 03:08:38;;;;;;;3.80;3.20;;;11.70;78.90;;;14.75;58.86;103822.28;4956280;29;20193;-53
2021/12/17 03:11:05;;;;;;;4.47;3.53;;;11.70;79.10;;;14.74;58.78;103821.44;4956439;29;20193;-51
2021/12/17 03:13:36;;;;;;;4.00;2.97;;;11.60;78.90;;;14.72;58.86;103811.94;4956783;28;20233;-53
2021/12/17 03:16:27;;;;;;;4.53;2.67;;;11.60;79.10;;;14.70;59.20;103804.09;4955442;29;20228;-52
2021/12/17 03:19:23;;;;;;;3.97;2.90;;;11.60;79.10;;;14.68;58.96;103800.75;4956592;29;20198;-51
2021/12/17 03:24:38;;;;;;;3.40;2.50;;;11.60;79.10;;;14.62;58.89;103792.47;4937043;29;20325;-53
2021/12/17 03:27:05;;;;;;;3.60;2.80;;;11.50;79.00;;;14.60;58.99;103797.88;4956029;29;20194;-53
2021/12/17 03:29:36;;;;;;;3.27;2.97;;;11.50;79.10;;;14.57;58.92;103808.72;4956258;29;20205;-50
2021/12/17 03:32:05;;;;;;;3.90;3.50;;;11.50;79.20;;;14.57;58.88;103816.66;4956122;29;20208;-53
2021/12/17 03:34:32;;;;;;;4.33;3.93;;;11.50;79.20;;;14.53;58.85;103806.44;4951797;29;20213;-50
2021/12/17 03:36:59;;;;;;;5.13;3.70;;;11.40;79.00;;;14.48;59.15;103814.75;4938443;29;20202;-51
2021/12/17 03:39:30;;;;;;;4.60;3.57;;;11.40;79.10;;;14.47;59.03;103813.09;4936822;29;20194;-51
2021/12/17 03:42:00;;;;;;;4.43;3.03;;;11.40;79.00;;;14.45;58.74;103823.00;4937252;29;20200;-51
2021/12/17 03:44:29;;;;;;;5.10;3.03;;;11.30;78.90;;;14.46;59.02;103829.94;4937057;29;20202;-52
2021/12/17 03:46:57;;;;;;;3.87;3.17;;;11.30;79.20;;;14.49;58.87;103837.66;4943866;29;20197;-52
2021/12/17 03:49:24;;;;;;;4.30;3.17;;;11.30;79.40;;;14.51;59.07;103841.03;4937934;29;20200;-51
2021/12/17 03:52:09;;;;;;;4.47;2.73;;;11.30;79.30;;;14.51;58.81;103835.72;4936443;29;20210;-52
2021/12/17 03:54:37;;;;;;;3.30;2.53;;;11.30;79.10;;;14.51;58.81;103829.56;4946494;28;20207;-52
2021/12/17 03:57:10;;;;;;;4.43;2.67;;;11.30;78.80;;;14.53;58.80;103838.25;4955518;29;20219;-51
2021/12/17 03:59:37;;;;;;;2.93;2.60;;;11.30;78.80;;;14.54;58.59;103845.25;4955310;29;20204;-53
2021/12/17 04:02:04;;;;;;;3.47;2.40;;;11.30;78.90;;;14.53;58.65;103844.41;4955660;29;20207;-52
2021/12/17 04:04:32;;;;;;;2.37;2.07;;;11.30;78.90;;;14.55;58.62;103847.75;4954923;29;20646;-50
2021/12/17 04:06:59;;;;;;;2.77;2.33;;;11.40;78.90;;;14.54;58.63;103842.59;4955475;28;20208;-51
2021/12/17 04:09:29;;;;;;;2.77;1.80;;;11.40;78.70;;;14.53;58.56;103844.41;4955238;29;20200;-52
2021/12/17 04:11:57;;;;;;;1.90;1.70;;;11.40;78.30;;;14.52;58.57;103848.03;4953762;29;20209;-51
2021/12/17 04:14:34;;;;;;;2.67;1.90;;;11.40;78.40;;;14.52;58.39;103842.72;4953599;29;20193;-50
2021/12/17 04:17:05;;;;;;;2.33;2.17;;;11.40;78.10;;;14.50;58.33;103838.50;4936132;29;20268;-52
2021/12/17 04:19:33;;;;;;;2.30;2.10;;;11.40;77.80;;;14.50;58.50;103834.03;4936337;29;20594;-51
2021/12/17 04:22:02;;;;;;;2.00;1.90;;;11.50;77.80;;;14.50;58.18;103828.72;4936134;29;20295;-50
2021/12/17 04:24:30;;;;;;;2.10;1.93;;;11.40;77.80;;;14.49;58.35;103816.47;4936454;29;20282;-50
2021/12/17 04:26:57;;;;;;;3.00;2.70;;;11.40;77.80;;;14.48;58.25;103819.22;4945978;29;20561;-51
2021/12/17 04:29:26;;;;;;;2.43;2.20;;;11.40;77.70;;;14.47;57.83;103829.00;4956443;29;20205;-49
2021/12/17 04:31:55;;;;;;;2.77;2.57;;;11.40;77.60;;;14.46;57.97;103824.66;4955171;29;20189;-50
2021/12/17 04:34:23;;;;;;;3.37;3.00;;;11.30;77.70;;;14.46;58.06;103815.84;4954329;29;20549;-51
2021/12/17 04:36:53;;;;;;;2.90;2.67;;;11.30;77.80;;;14.43;58.06;103811.63;4953892;29;20197;-50
2021/12/17 04:39:22;;;;;;;3.47;2.90;;;11.30;77.90;;;14.41;58.21;103816.22;4955390;29;20202;-51
2021/12/17 04:42:01;;;;;;;3.17;2.73;;;11.30;77.90;;;14.40;58.07;103817.22;4955247;29;20189;-50
2021/12/17 04:44:36;;;;;;;3.33;3.03;;;11.30;77.90;;;14.39;58.37;103810.22;4952774;29;20228;-50
2021/12/17 04:57:55;;;;;;;4.07;3.67;;;11.20;77.90;;;14.30;58.51;103810.06;4954717;29;20224;-51
2021/12/17 05:00:28;;;;;;;4.30;3.50;;;11.20;78.30;;;14.29;58.14;103811.06;4945911;29;20639;-51
2021/12/17 05:02:59;;;;;;;3.57;2.93;;;11.20;78.30;;;14.29;58.37;103819.81;4935416;29;20196;-51
2021/12/17 05:05:31;;;;;;;4.40;3.67;;;11.10;78.20;;;14.29;58.20;103816.34;4935297;29;20640;-51
2021/12/17 05:08:03;;;;;;;5.10;3.87;;;11.10;78.10;;;14.28;58.10;103820.81;4935319;29;20193;-52
2021/12/17 05:18:55;;;;;;;4.50;3.27;;;11.10;78.00;;;14.18;58.62;103811.91;4937265;29;20536;-52
2021/12/17 05:21:24;;;;;;;3.03;2.70;;;11.10;77.80;;;14.17;58.30;103813.69;4938924;29;20257;-52
2021/12/17 05:23:52;;;;;;;2.53;2.33;;;11.10;77.90;;;14.19;58.39;103824.19;4938967;29;20200;-51
2021/12/17 05:26:22;;;;;;;2.37;2.17;;;11.10;78.70;;;14.23;58.37;103825.63;4953694;29;20231;-53
2021/12/17 05:28:51;;;;;;;3.47;2.33;;;11.10;78.00;;;14.23;58.53;103825.63;4958536;29;20550;-50
2021/12/17 05:31:22;;;;;;;4.27;2.83;;;11.10;78.00;;;14.26;58.50;103833.34;4958588;29;20263;-50
2021/12/17 05:33:50;;;;;;;5.33;3.70;;;11.10;78.10;;;14.27;58.20;103838.50;4941012;29;20206;-51
2021/12/17 05:36:20;;;;;;;5.07;3.17;;;11.20;78.30;;;14.30;58.23;103840.09;4953073;29;20217;-52
2021/12/17 05:38:48;;;;;;;3.57;3.10;;;11.10;78.20;;;14.31;58.33;103844.41;4958216;29;20193;-51
2021/12/17 05:41:16;;;;;;;2.87;2.53;;;11.20;79.10;;;14.31;58.41;103844.41;4958280;28;20662;-50
2021/12/17 05:43:44;;;;;;;4.77;2.57;;;11.20;78.20;;;14.33;58.54;103853.13;4957670;28;20200;-51
2021/12/17 05:46:13;;;;;;;3.17;2.70;;;11.20;78.20;;;14.35;58.24;103845.88;4926949;29;20224;-50
2021/12/17 05:48:41;;;;;;;2.77;2.57;;;11.20;78.20;;;14.36;58.50;103852.84;4940437;29;20194;-50
2021/12/17 05:51:11;;;;;;;3.70;2.83;;;11.20;78.70;;;14.41;58.54;103857.78;4957746;29;20285;-50
2021/12/17 05:53:38;;;;;;;2.70;2.50;;;11.30;78.80;;;14.44;58.64;103860.19;4957685;29;20217;-51
2021/12/17 05:56:06;;;;;;;3.67;3.13;;;11.30;79.00;;;14.49;58.93;103855.38;4957026;29;20224;-53
2021/12/17 05:58:33;;;;;;;3.77;3.33;;;11.30;79.10;;;14.52;58.46;103852.47;4957784;29;20223;-52
2021/12/17 06:01:01;;;;;;;3.97;3.20;;;11.30;78.70;;;14.51;58.40;103851.63;4957811;29;20197;-51
2021/12/17 06:03:29;;;;;;;4.77;3.40;;;11.30;78.50;;;14.51;58.38;103854.28;4957861;28;20185;-53
2021/12/17 06:05:57;;;;;;;4.27;3.63;;;11.30;78.60;;;14.50;58.40;103857.88;4947111;29;20214;-52
2021/12/17 06:08:25;;;;;;;3.70;3.13;;;11.30;78.60;;;14.51;58.38;103862.25;4938213;29;20208;-52
2021/12/17 06:10:52;;;;;;;3.50;2.90;;;11.30;78.90;;;14.51;58.32;103862.25;4940828;29;20236;-53
2021/12/17 06:13:19;;;;;;;5.90;4.00;;;11.30;78.80;;;14.49;58.50;103861.53;4945847;29;20543;-49
2021/12/17 06:15:47;;;;;;;5.20;3.50;;;11.30;78.60;;;14.47;58.41;103855.50;4938594;29;20663;-53
2021/12/17 06:18:14;;;;;;;5.73;5.07;;;11.30;78.60;;;14.48;58.79;103853.69;4939158;29;20216;-51
2021/12/17 06:20:42;;;;;;;7.43;4.67;;;11.30;78.80;;;14.48;58.74;103851.88;4938902;29;20194;-53
2021/12/17 06:23:10;;;;;;;5.13;4.40;;;11.30;79.00;;;14.51;58.66;103859.59;4938434;29;20190;-50
2021/12/17 06:25:37;;;;;;;6.77;4.17;;;11.30;79.20;;;14.52;58.73;103858.63;4946190;29;20221;-52
2021/12/17 06:28:05;;;;;;;4.97;3.63;;;11.30;79.10;;;14.53;58.75;103857.66;4957017;29;20189;-51
2021/12/17 06:30:32;;;;;;;5.80;4.20;;;11.30;79.40;;;14.55;58.92;103852.22;4956659;28;20197;-52
2021/12/17 06:32:59;;;;;;;6.17;4.70;;;11.30;79.60;;;14.58;58.78;103855.47;4956975;29;20213;-52
2021/12/17 06:35:27;;;;;;;5.60;4.43;;;11.30;79.40;;;14.60;58.77;103858.84;4956059;29;20213;-51
2021/12/17 06:37:54;;;;;;;5.90;4.60;;;11.40;79.70;;;14.65;59.00;103859.31;4955723;29;20194;-51
2021/12/17 06:40:28;;;;;;;5.67;4.67;;;11.40;79.80;;;14.70;59.04;103857.13;4957167;29;20193;-51
2021/12/17 06:42:55;;;;;;;7.23;4.97;;;11.50;79.60;;;14.74;59.01;103852.41;4956391;29;20200;-51
2021/12/17 06:45:38;;;;;;;6.13;5.53;;;11.50;79.60;;;14.78;58.82;103856.50;4950253;29;20327;-52
2021/12/17 06:48:07;;;;;;;10.03;5.77;;;11.60;79.70;;;14.82;58.81;103857.94;4937721;29;20190;-51
2021/12/17 06:59:03;;;;;;;10.10;7.33;;;11.70;78.70;;;14.90;58.40;103855.50;4919903;29;20199;-51
2021/12/17 07:07:21;;;;;;;7.27;5.70;;;11.80;78.60;;;14.96;58.23;103852.34;4917828;29;20190;-52
2021/12/17 07:17:52;;;;;;;11.20;6.97;;;11.80;78.70;;;14.98;58.27;103860.16;4900292;29;20624;-53
2021/12/17 07:34:51;;;;;;;7.53;6.47;;;11.80;78.20;;;14.99;58.13;103853.91;4934907;29;20708;-53
2021/12/17 07:39:46;;;;;;;8.33;6.13;;;11.80;78.30;;;14.96;58.01;103859.47;4921399;29;20258;-51
2021/12/17 07:42:13;;;;;;;8.40;6.10;;;11.80;78.50;;;14.97;58.20;103858.50;4919472;29;20240;-51
2021/12/17 07:44:42;;;;;;;7.23;5.43;;;11.70;78.50;;;14.99;58.47;103864.50;4918742;29;20224;-51
2021/12/17 07:47:09;;;;;;;9.60;6.67;;;11.80;78.90;;;15.01;58.33;103865.22;4917112;29;20198;-51
2021/12/17 07:49:37;;;;;;;7.57;6.10;;;11.80;79.20;;;15.04;58.74;103872.94;4918408;29;20202;-52
2021/12/17 07:52:05;;;;;;;14.13;10.00;;;11.80;79.20;;;15.07;58.66;103870.84;4917126;29;20221;-51
2021/12/17 07:54:32;;;;;;;7.80;6.23;;;11.80;79.10;;;15.09;58.66;103868.09;4916676;29;20278;-51
2021/12/17 07:57:00;;;;;;;7.00;5.73;;;11.80;78.50;;;15.10;57.88;103869.75;4918982;29;20554;-51
2021/12/17 07:59:27;;;;;;;7.10;5.43;;;11.80;78.50;;;15.11;58.09;103869.66;4936623;29;20201;-53
2021/12/17 08:01:56;;;;;;;7.10;5.27;;;11.80;78.80;;;15.14;58.60;103869.38;4937827;29;20473;-51
2021/12/17 08:04:25;;;;;;;10.67;6.63;;;11.90;78.90;;;15.15;57.95;103862.28;4938370;29;20281;-51
2021/12/17 08:06:52;;;;;;;7.97;5.90;;;11.90;78.40;;;15.14;57.88;103865.91;4937360;29;20198;-51
2021/12/17 08:09:20;;;;;;;9.10;6.83;;;11.90;78.00;;;15.13;58.33;103869.53;4936648;29;20197;-52
2021/12/17 08:11:54;;;;;;;7.97;6.33;;;11.90;78.00;;;15.11;57.91;103876.78;4936922;29;20194;-50
2021/12/17 08:14:23;;;;;;;8.57;5.73;;;11.90;78.20;;;15.10;58.05;103870.63;4940444;29;20248;-51
2021/12/17 08:16:59;;;;;;;9.23;6.57;;;11.90;78.20;;;15.11;58.20;103877.63;4935451;29;20198;-52
2021/12/17 08:32:44;;;;;;;8.33;6.53;;;11.90;77.80;;;15.10;57.76;103869.75;4920094;29;20639;-51
2021/12/17 08:35:14;;;;;;;9.73;6.77;;;11.90;78.30;;;15.11;57.55;103874.13;4914438;29;20332;-51
2021/12/17 08:37:41;;;;;;;8.13;7.00;;;11.90;77.50;;;15.11;57.80;103882.06;4929280;28;20208;-53
2021/12/17 08:40:10;;;;;;;7.57;6.77;;;11.90;77.70;;;15.13;57.59;103880.13;4914650;29;20213;-53
2021/12/17 08:42:37;;;;;;;7.50;6.27;;;11.90;77.70;;;15.13;57.35;103877.47;4915289;29;20240;-53
2021/12/17 08:45:08;;;;;;;9.17;7.10;;;11.90;77.70;;;15.14;57.62;103882.66;4916057;29;20352;-51
2021/12/17 08:47:36;;;;;;;10.03;6.43;;;11.90;77.30;;;15.16;57.58;103879.88;4914457;29;20567;-52
2021/12/17 08:50:07;;;;;;;10.37;7.27;;;11.90;77.40;;;15.17;57.38;103886.88;4916697;29;20214;-55
2021/12/17 08:52:35;;;;;;;11.93;7.33;;;11.90;77.20;;;15.20;57.48;103886.63;4919214;29;20198;-55
2021/12/17 08:55:04;;;;;;;8.43;6.47;;;11.90;77.00;;;15.21;57.15;103883.00;4919922;29;20233;-53
2021/12/17 08:57:35;;;;;;;9.40;6.40;;;12.00;77.20;;;15.23;57.17;103879.25;4914435;29;20207;-53
2021/12/17 09:00:06;;;;;;;11.57;7.70;;;12.00;76.90;;;15.26;57.48;103883.47;4901199;29;20654;-51
2021/12/17 09:02:35;;;;;;;9.93;6.27;;;12.00;76.80;;;15.29;57.04;103880.53;4901492;29;20202;-50
2021/12/17 09:05:04;;;;;;;8.77;5.93;;;12.10;76.90;;;15.31;56.87;103878.59;4901315;29;20315;-52
2021/12/17 09:07:31;;;;;;;8.90;5.97;;;12.10;76.60;;;15.33;56.85;103892.59;4900419;29;20309;-54
2021/12/17 09:10:04;;;;;;;7.53;5.67;;;12.10;76.40;;;15.35;56.98;103891.50;4901021;29;20220;-54
2021/12/17 09:12:32;;;;;;;6.80;5.87;;;12.10;76.50;;;15.35;56.47;103886.19;4905624;29;20216;-54
2021/12/17 09:14:59;;;;;;;6.10;5.43;;;12.10;76.40;;;15.35;56.63;103880.91;4920931;29;20242;-50
2021/12/17 09:17:27;;;;;;;6.50;5.43;;;12.10;75.90;;;15.36;57.02;103881.72;4919792;29;20205;-50
2021/12/17 09:19:54;;;;;;;7.27;6.33;;;12.10;75.90;;;15.37;56.45;103886.06;4939574;29;20194;-53
2021/12/17 09:22:22;;;;;;;7.83;5.37;;;12.10;75.60;;;15.36;56.32;103892.31;4935053;29;20209;-53
2021/12/17 09:24:49;;;;;;;5.40;4.90;;;12.20;75.80;;;15.34;56.38;103889.81;4921025;29;20224;-52
2021/12/17 09:27:20;;;;;;;7.03;5.73;;;12.20;75.70;;;15.37;56.44;103897.53;4920988;29;20228;-54
2021/12/17 09:29:48;;;;;;;6.47;5.50;;;12.20;75.30;;;15.40;56.34;103899.09;4921709;29;20202;-53
2021/12/17 09:32:15;;;;;;;9.67;6.57;;;12.20;75.50;;;15.41;56.10;103898.09;4921569;29;20277;-52
2021/12/17 09:34:43;;;;;;;6.30;5.70;;;12.30;76.20;;;15.41;55.84;103901.59;4923744;29;20301;-53
2021/12/17 09:37:10;;;;;;;8.00;5.83;;;12.20;74.80;;;15.38;55.76;103901.03;4919411;29;20211;-50
2021/12/17 09:39:37;;;;;;;6.53;5.87;;;12.20;74.60;;;15.38;55.79;103907.16;4921295;29;20198;-55
2021/12/17 09:42:06;;;;;;;8.50;6.37;;;12.20;74.60;;;15.36;55.55;103897.63;4937158;29;20285;-52
2021/12/17 09:44:35;;;;;;;6.50;5.93;;;12.20;74.40;;;15.33;55.92;103905.88;4920932;29;20213;-51
2021/12/17 09:47:03;;;;;;;5.57;4.80;;;12.20;74.50;;;15.32;55.60;103906.84;4938439;29;20202;-53
2021/12/17 09:49:31;;;;;;;7.33;6.53;;;12.20;74.70;;;15.32;55.77;103901.53;4937102;29;20222;-52
2021/12/17 09:51:59;;;;;;;6.93;6.07;;;12.20;74.70;;;15.34;55.79;103896.94;4939999;29;20190;-53
2021/12/17 09:54:27;;;;;;;9.20;8.33;;;12.20;74.50;;;15.34;55.43;103907.53;4935738;29;20570;-51
2021/12/17 09:56:54;;;;;;;9.57;8.13;;;12.20;74.20;;;15.33;55.87;103906.69;4925570;29;20257;-51
2021/12/17 09:59:22;;;;;;;12.73;11.40;;;12.20;74.30;;;15.31;55.43;103911.28;4939498;29;20201;-51
2021/12/17 10:01:51;;;;;;;11.30;8.97;;;12.20;74.50;;;15.35;55.69;103906.59;4938326;29;20204;-51
2021/12/17 10:04:25;;;;;;;15.00;8.57;;;12.20;74.80;;;15.39;55.74;103918.63;4940013;29;20269;-52
2021/12/17 10:07:17;;;;;;;7.80;6.73;;;12.20;75.00;;;15.36;55.71;103918.88;4932025;29;20302;-52
2021/12/17 10:09:47;;;;;;;7.57;6.43;;;12.30;74.40;;;15.41;55.51;103922.00;4923258;29;20235;-54
2021/12/17 10:12:22;;;;;;;9.30;7.93;;;12.20;74.40;;;15.39;55.42;103924.78;4938615;29;20201;-50
2021/12/17 10:15:07;;;;;;;10.03;7.70;;;12.30;74.20;;;15.37;55.23;103931.19;4936980;29;20292;-50
2021/12/17 10:17:50;;;;;;;8.77;7.70;;;12.20;74.20;;;15.38;55.41;103924.91;4922768;29;20230;-51
2021/12/17 10:20:19;;;;;;;7.60;6.90;;;12.20;74.20;;;15.37;55.23;103928.53;4938356;29;20548;-52
2021/12/17 10:22:57;;;;;;;7.10;5.97;;;12.20;73.70;;;15.30;55.27;103930.84;4927176;29;20273;-50
2021/12/17 10:25:26;;;;;;;6.93;5.83;;;12.20;73.60;;;15.27;55.47;103919.63;4916289;29;20211;-50
2021/12/17 10:27:59;;;;;;;6.87;6.27;;;12.20;73.80;;;15.25;55.32;103921.59;4917727;29;20213;-53
2021/12/17 10:30:29;;;;;;;8.83;7.97;;;12.10;74.10;;;15.26;55.45;103929.41;4921597;29;20327;-52
2021/12/17 10:33:01;;;;;;;8.90;7.70;;;12.10;74.10;;;15.25;55.33;103932.19;4919342;29;20202;-50
2021/12/17 10:35:31;;;;;;;8.87;7.23;;;12.10;74.80;;;15.30;55.64;103937.97;4932339;29;20345;-51
2021/12/17 10:38:03;;;;;;;8.23;7.40;;;12.10;74.70;;;15.32;55.56;103939.53;4924246;29;20279;-53
2021/12/17 10:40:35;;;;;;;7.30;6.60;;;12.10;74.60;;;15.33;55.17;103940.38;4929255;29;20224;-49
2021/12/17 10:43:14;;;;;;;8.63;7.83;;;12.20;74.30;;;15.32;55.49;103944.00;4909890;29;20212;-50
2021/12/17 10:45:56;;;;;;;6.13;5.53;;;12.20;74.20;;;15.30;55.20;103953.91;4927940;29;20221;-50
2021/12/17 10:53:55;;;;;;;3.27;2.97;;;12.10;74.70;;;15.22;55.14;103935.09;4919982;29;20280;-50
2021/12/17 10:56:25;;;;;;;3.40;3.00;;;12.10;73.90;;;15.23;55.12;103937.66;4912698;29;20346;-52
2021/12/17 10:59:00;;;;;;;3.17;2.87;;;12.10;74.00;;;15.24;55.47;103941.13;4895818;29;20225;-50
2021/12/17 11:01:35;;;;;;;4.90;2.50;;;12.20;74.30;;;15.27;55.35;103935.56;4893061;29;20566;-51
2021/12/17 11:04:08;;;;;;;2.60;2.03;;;12.20;74.10;;;15.27;55.44;103932.91;4894527;29;20210;-53
2021/12/17 11:06:54;;;;;;;3.37;2.10;;;12.20;73.60;;;15.21;55.07;103926.31;4894999;29;21147;-54
2021/12/17 11:09:46;;;;;;;3.03;2.20;;;12.10;73.50;;;15.15;55.33;103932.09;4896866;29;20209;-53
2021/12/17 11:12:28;;;;;;;3.03;2.47;;;12.10;73.90;;;15.17;55.31;103939.94;4896331;29;20479;-54
2021/12/17 11:15:08;;;;;;;3.20;2.90;;;12.10;74.10;;;15.20;55.54;103918.47;4897250;29;20230;-54
2021/12/17 11:17:37;;;;;;;4.53;2.87;;;12.10;74.40;;;15.27;55.48;103922.28;4894392;29;20206;-56
2021/12/17 11:20:11;;;;;;;10.40;7.67;;;12.10;74.50;;;15.27;55.66;103932.91;4895726;29;20731;-50
2021/12/17 11:22:44;;;;;;;4.23;3.83;;;12.10;74.70;;;15.31;55.60;103921.06;4894712;29;20221;-49
2021/12/17 11:25:13;;;;;;;3.60;3.30;;;12.20;75.00;;;15.36;55.59;103924.19;4892850;29;20218;-49
2021/12/17 11:27:41;;;;;;;3.77;2.83;;;12.20;74.70;;;15.38;55.51;103928.41;4896072;29;20617;-57
2021/12/17 11:30:13;;;;;;;4.37;3.50;;;12.20;74.70;;;15.39;55.45;103919.47;4896728;29;20226;-52
2021/12/17 11:32:45;;;;;;;4.07;3.70;;;12.20;74.60;;;15.41;55.68;103922.00;4896723;29;20652;-50
2021/12/17 11:35:19;;;;;;;6.10;3.77;;;12.20;74.10;;;15.41;55.18;103916.69;4899482;29;20245;-51
2021/12/17 11:37:51;;;;;;;4.97;3.80;;;12.20;74.20;;;15.44;55.56;103921.75;4899867;29;20194;-52
2021/12/17 11:40:28;;;;;;;4.37;3.93;;;12.30;74.30;;;15.46;55.64;103925.13;4899605;29;20210;-56
2021/12/17 11:43:49;;;;;;;4.63;3.77;;;12.30;74.50;;;15.43;55.19;103914.72;4883650;29;20202;-52
2021/12/17 11:46:22;;;;;;;7.07;5.27;;;12.30;74.10;;;15.41;55.25;103911.38;4896185;29;20230;-52
2021/12/17 11:48:53;;;;;;;5.53;4.97;;;12.20;73.80;;;15.41;55.22;103906.06;4895435;29;20210;-53
2021/12/17 11:51:26;;;;;;;6.83;5.00;;;12.20;73.80;;;15.43;55.20;103920.03;4894032;29;20281;-49
2021/12/17 11:54:05;;;;;;;7.07;6.33;;;12.30;74.20;;;15.46;55.44;103911.88;4893600;29;20294;-52
2021/12/17 11:56:42;;;;;;;5.73;4.83;;;12.30;74.30;;;15.49;54.93;103911.63;4894227;29;20225;-49
2021/12/17 11:59:33;;;;;;;5.67;4.60;;;12.30;74.20;;;15.47;55.30;103914.41;4896070;29;20241;-49
2021/12/17 12:02:05;;;;;;;6.73;6.03;;;12.30;74.00;;;15.52;55.09;103920.16;4895556;29;20205;-52
2021/12/17 12:04:54;;;;;;;10.37;5.13;;;12.30;73.90;;;15.51;54.67;103917.63;4893544;29;20387;-51
2021/12/17 12:07:37;;;;;;;5.30;4.00;;;12.40;73.80;;;15.51;55.03;103922.94;4893843;29;20217;-53
2021/12/17 12:10:21;;;;;;;6.57;4.30;;;12.40;73.10;;;15.52;54.52;103919.34;4893338;29;20565;-52
2021/12/17 12:12:58;;;;;;;4.40;3.57;;;12.40;73.10;;;15.56;54.66;103923.41;4893372;29;20210;-51
2021/12/17 12:15:36;;;;;;;3.87;3.53;;;12.40;72.70;;;15.58;54.24;103917.00;4891725;29;20916;-49
2021/12/17 12:18:15;;;;;;;3.63;3.27;;;12.40;72.70;;;15.61;54.11;103907.94;4895329;29;20214;-53
2021/12/17 12:20:59;;;;;;;7.00;4.87;;;12.40;72.40;;;15.57;53.94;103906.47;4895324;29;20317;-52
2021/12/17 12:23:54;;;;;;;8.77;6.33;;;12.40;72.20;;;15.56;54.61;103905.66;4897953;29;20333;-55
2021/12/17 12:26:37;;;;;;;6.33;4.43;;;12.50;72.80;;;15.63;53.89;103900.69;4885042;29;20264;-51
2021/12/17 12:29:24;;;;;;;4.87;3.50;;;12.50;73.20;;;15.66;54.44;103905.75;4894044;29;21873;-55
2021/12/17 12:32:13;;;;;;;4.40;3.17;;;12.50;72.40;;;15.70;54.07;103896.53;4891564;29;20210;-55
2021/12/17 12:34:42;;;;;;;9.77;5.00;;;12.60;72.50;;;15.78;54.09;103902.03;4894425;29;20329;-50
2021/12/17 12:37:33;;;;;;;7.47;4.60;;;12.60;72.60;;;15.79;53.88;103895.75;4900105;29;20215;-52
2021/12/17 12:40:16;;;;;;;7.43;5.17;;;12.60;72.80;;;15.82;54.01;103899.94;4915112;29;20215;-51
2021/12/17 12:42:55;;;;;;;4.77;4.03;;;12.60;72.30;;;15.82;53.77;103900.81;4923425;29;20209;-52
2021/12/17 12:45:24;;;;;;;6.10;4.00;;;12.60;72.00;;;15.82;54.11;103906.09;4919092;29;20249;-50
2021/12/17 12:47:57;;;;;;;5.53;4.17;;;12.60;72.20;;;15.85;54.13;103902.34;4917036;29;20318;-49
2021/12/17 12:50:30;;;;;;;9.67;5.90;;;12.60;72.80;;;15.90;54.04;103903.63;4916984;29;20183;-50
2021/12/17 12:53:10;;;;;;;6.43;4.83;;;12.70;72.40;;;15.91;53.93;103900.00;4917148;29;20214;-50
2021/12/17 12:55:43;;;;;;;8.93;5.93;;;12.70;72.40;;;15.95;53.78;103901.41;4916495;29;20263;-49
2021/12/17 12:58:14;;;;;;;12.03;7.00;;;12.70;72.10;;;15.97;53.67;103902.16;4906363;29;20210;-52
2021/12/17 13:00:47;;;;;;;8.93;7.70;;;12.70;72.00;;;15.93;53.58;103895.41;4912322;29;20234;-51
2021/12/17 13:03:17;;;;;;;7.23;6.17;;;12.70;71.90;;;15.93;53.58;103897.22;4916294;29;20198;-51
2021/12/17 13:05:47;;;;;;;7.70;5.40;;;12.70;71.70;;;15.90;53.54;103908.94;4916653;29;20210;-52
2021/12/17 13:08:17;;;;;;;4.40;4.00;;;12.70;71.60;;;15.89;53.44;103901.97;4916749;29;20611;-52
2021/12/17 13:10:50;;;;;;;6.33;4.40;;;12.70;71.30;;;15.85;53.50;103900.53;4916962;29;20273;-51
2021/12/17 13:13:29;;;;;;;6.23;4.77;;;12.70;71.20;;;15.84;53.30;103896.19;4916957;29;20281;-51
2021/12/17 13:21:06;;;;;;;5.17;4.70;;;12.60;71.30;;;15.83;53.49;103891.03;4916549;29;20230;-49
2021/12/17 13:23:47;;;;;;;7.00;4.13;;;12.60;71.30;;;15.84;53.29;103882.06;4935150;29;20310;-50